aviador You're here:

KCVW Decoded Metar

in
Report Time2017-10-17 20:15:00
UTC Time2017-10-17 20:25:31
Flight Rules vfr VFR
Wind350° at 08 kt
W.Rank350° ranks 25
Current wind is below 350° avg. (8.0)
Visibility9999 m
Phenomena:N/A
Clouds:N/A
Expected CloudBase > 5,600 ft AGL from Temp-Dew spread
CeilingNone
Temp23°C
Dew Point09°C (41% RH)
AAT19.9°C
QNH1020 hPa
Raw Report
KCVW 172015Z AUTO 35008KT 330V030 10SM CLR 23/09 A3013 RMK A01=

Extra information for KCVW:More info

Social comments